Time;durP1;ratioP1;P1;durP2;ratioP2;P2;SDS_P1;SDS_P2;PMS_P1;PMS_P2;Temp;Humidity;BMP_temperature;BMP_pressure;BME280_temperature;BME280_humidity;BME280_pressure;Samples;Min_cycle;Max_cycle;Signal;HPM_P1;HPM_P2
2023/07/20 00:02:05;;;;;;;;;;;;;;;18.72;nan;100612.69;4097326;28;19930;-64
2023/07/20 00:04:07;;;;;;;;;;;;;;;18.73;nan;100614.38;4097235;28;20296;-63
2023/07/20 00:06:09;;;;;;;;;;;;;;;18.72;nan;100616.25;4098373;28;19929;-64
2023/07/20 00:08:10;;;;;;;;;;;;;;;18.70;nan;100621.13;4097800;28;19941;-64
2023/07/20 00:10:13;;;;;;;;;;;;;;;18.70;nan;100617.56;4096772;28;19946;-65
2023/07/20 00:12:15;;;;;;;;;;;;;;;18.65;nan;100620.16;4097192;28;20282;-65
2023/07/20 00:14:17;;;;;;;;;;;;;;;18.63;nan;100617.66;4096016;28;19926;-65
2023/07/20 00:16:19;;;;;;;;;;;;;;;18.63;nan;100620.38;4098257;28;19923;-65
2023/07/20 00:18:23;;;;;;;;;;;;;;;18.64;nan;100616.59;4095936;28;20288;-64
2023/07/20 00:20:25;;;;;;;;;;;;;;;18.63;nan;100622.31;4097504;28;19929;-65
2023/07/20 00:22:27;;;;;;;;;;;;;;;18.62;nan;100623.34;4097777;28;19927;-64
2023/07/20 00:24:30;;;;;;;;;;;;;;;18.60;nan;100614.56;4098690;28;19926;-65
2023/07/20 00:26:32;;;;;;;;;;;;;;;18.59;nan;100613.75;4097226;28;19923;-65
2023/07/20 00:28:34;;;;;;;;;;;;;;;18.58;nan;100614.78;4097352;28;19923;-64
2023/07/20 00:30:36;;;;;;;;;;;;;;;18.61;nan;100613.50;4096960;28;19932;-64
2023/07/20 00:32:38;;;;;;;;;;;;;;;18.62;nan;100610.53;4112583;28;19976;-64
2023/07/20 00:34:42;;;;;;;;;;;;;;;18.59;nan;100613.75;4096426;28;20031;-65
2023/07/20 00:36:43;;;;;;;;;;;;;;;18.57;nan;100615.84;4096926;29;19928;-65
2023/07/20 00:38:45;;;;;;;;;;;;;;;18.57;nan;100618.59;4097323;28;20522;-64
2023/07/20 00:40:48;;;;;;;;;;;;;;;18.61;nan;100616.25;4097022;28;19926;-65
2023/07/20 00:42:50;;;;;;;;;;;;;;;18.61;nan;100610.78;4097082;28;20304;-63
2023/07/20 00:44:59;;;;;;;;;;;;;;;18.61;nan;100614.31;4097236;28;20369;-63
2023/07/20 00:47:01;;;;;;;;;;;;;;;18.62;nan;100620.63;4097513;28;19926;-64
2023/07/20 00:49:03;;;;;;;;;;;;;;;18.60;nan;100618.13;4095928;28;20427;-63
2023/07/20 00:51:07;;;;;;;;;;;;;;;18.59;nan;100623.81;4096607;28;20463;-62
2023/07/20 00:53:09;;;;;;;;;;;;;;;18.59;nan;100621.09;4096948;28;20294;-64
2023/07/20 00:55:11;;;;;;;;;;;;;;;18.59;nan;100618.34;4096728;28;19926;-65
2023/07/20 00:57:14;;;;;;;;;;;;;;;18.57;nan;100617.75;4096222;28;19926;-62
2023/07/20 00:59:16;;;;;;;;;;;;;;;18.56;nan;100616.94;4097443;28;20463;-65
2023/07/20 01:01:18;;;;;;;;;;;;;;;18.57;nan;100615.03;4097388;28;19933;-63
2023/07/20 01:03:20;;;;;;;;;;;;;;;18.55;nan;100605.13;4096766;28;20393;-65
2023/07/20 01:05:22;;;;;;;;;;;;;;;18.56;nan;100611.47;4096129;28;20002;-64
2023/07/20 01:07:26;;;;;;;;;;;;;;;18.56;nan;100614.19;4097209;28;19933;-65
2023/07/20 01:09:30;;;;;;;;;;;;;;;18.54;nan;100616.31;4084943;28;19923;-65
2023/07/20 01:11:33;;;;;;;;;;;;;;;18.53;nan;100615.50;4095750;28;20463;-64
2023/07/20 01:13:35;;;;;;;;;;;;;;;18.53;nan;100609.19;4095607;28;19922;-65
2023/07/20 01:15:38;;;;;;;;;;;;;;;18.55;nan;100620.72;4097125;28;19927;-63
2023/07/20 01:17:40;;;;;;;;;;;;;;;18.55;nan;100631.66;4095880;28;19926;-64
2023/07/20 01:19:42;;;;;;;;;;;;;;;18.53;nan;100620.97;4088564;28;20308;-65
2023/07/20 01:21:46;;;;;;;;;;;;;;;18.53;nan;100633.81;4112722;28;19922;-64
2023/07/20 01:24:05;;;;;;;;;;;;;;;18.50;nan;100626.91;4095405;28;19930;-65
2023/07/20 01:26:21;;;;;;;;;;;;;;;18.49;nan;100622.47;4097738;28;19923;-65
2023/07/20 01:28:30;;;;;;;;;;;;;;;18.44;nan;100627.00;4111957;28;19944;-64
2023/07/20 01:30:36;;;;;;;;;;;;;;;18.43;nan;100625.31;4096714;28;19922;-65
2023/07/20 01:32:39;;;;;;;;;;;;;;;18.41;nan;100628.28;4103602;28;19933;-65
2023/07/20 01:34:40;;;;;;;;;;;;;;;18.40;nan;100623.91;4086625;28;20292;-65
2023/07/20 01:36:43;;;;;;;;;;;;;;;18.39;nan;100621.41;4096671;28;19930;-65
2023/07/20 01:38:45;;;;;;;;;;;;;;;18.35;nan;100632.78;4096817;28;19922;-65
2023/07/20 01:40:46;;;;;;;;;;;;;;;18.33;nan;100626.72;4096255;28;19922;-64
2023/07/20 01:42:48;;;;;;;;;;;;;;;18.33;nan;100623.16;4095227;28;19933;-64
2023/07/20 01:44:52;;;;;;;;;;;;;;;18.33;nan;100628.63;4097433;28;19922;-64
2023/07/20 01:46:54;;;;;;;;;;;;;;;18.30;nan;100627.16;4099942;28;20385;-65
2023/07/20 01:48:57;;;;;;;;;;;;;;;18.27;nan;100622.16;4099126;28;19922;-65
2023/07/20 01:50:59;;;;;;;;;;;;;;;18.24;nan;100619.88;4099978;28;20388;-64
2023/07/20 01:53:01;;;;;;;;;;;;;;;18.21;nan;100614.88;4099879;28;19926;-63
2023/07/20 01:55:04;;;;;;;;;;;;;;;18.22;nan;100619.28;4115036;28;21368;-64
2023/07/20 01:57:07;;;;;;;;;;;;;;;18.22;nan;100621.19;4099561;28;19932;-64
2023/07/20 01:59:09;;;;;;;;;;;;;;;18.22;nan;100630.22;4098165;28;20760;-64
2023/07/20 02:01:12;;;;;;;;;;;;;;;18.24;nan;100621.81;4099515;28;19926;-65
2023/07/20 02:03:15;;;;;;;;;;;;;;;18.17;nan;100616.44;4099273;28;19945;-64
2023/07/20 02:05:18;;;;;;;;;;;;;;;18.16;nan;100623.78;4100550;28;20210;-63
2023/07/20 02:07:19;;;;;;;;;;;;;;;18.17;nan;100625.44;4098406;28;19923;-64
2023/07/20 02:09:21;;;;;;;;;;;;;;;18.18;nan;100621.66;4098389;28;19933;-62
2023/07/20 02:11:24;;;;;;;;;;;;;;;18.16;nan;100614.75;4098968;28;19928;-63
2023/07/20 02:13:26;;;;;;;;;;;;;;;18.14;nan;100611.41;4097835;28;19973;-64
2023/07/20 02:15:27;;;;;;;;;;;;;;;18.17;nan;100619.16;4099716;28;19926;-63
2023/07/20 02:17:29;;;;;;;;;;;;;;;18.21;nan;100622.25;4105551;28;19926;-64
2023/07/20 02:19:32;;;;;;;;;;;;;;;18.22;nan;100618.47;4099863;28;19923;-64
2023/07/20 02:21:36;;;;;;;;;;;;;;;18.25;nan;100613.38;4098897;28;19932;-64
2023/07/20 02:23:38;;;;;;;;;;;;;;;18.24;nan;100614.41;4098906;28;19932;-63
2023/07/20 02:25:40;;;;;;;;;;;;;;;18.22;nan;100613.81;4099680;28;20377;-64
2023/07/20 02:27:42;;;;;;;;;;;;;;;18.22;nan;100615.75;4099509;28;19928;-64
2023/07/20 02:29:45;;;;;;;;;;;;;;;18.23;nan;100615.50;4114244;28;20277;-64
2023/07/20 02:31:47;;;;;;;;;;;;;;;18.23;nan;100615.50;4098112;28;19929;-65
2023/07/20 02:33:48;;;;;;;;;;;;;;;18.23;nan;100618.25;4099344;28;19926;-64
2023/07/20 02:35:50;;;;;;;;;;;;;;;18.22;nan;100616.56;4099461;28;20388;-64
2023/07/20 02:37:55;;;;;;;;;;;;;;;18.22;nan;100611.09;4098110;28;19936;-64
2023/07/20 02:39:57;;;;;;;;;;;;;;;18.21;nan;100614.88;4099002;28;19922;-64
2023/07/20 02:41:59;;;;;;;;;;;;;;;18.20;nan;100615.97;4099787;28;19933;-64
2023/07/20 02:44:01;;;;;;;;;;;;;;;18.18;nan;100618.94;4099257;28;19926;-64
2023/07/20 02:46:04;;;;;;;;;;;;;;;18.17;nan;100617.25;4098886;28;19937;-64
2023/07/20 02:48:07;;;;;;;;;;;;;;;18.13;nan;100626.97;4096722;28;19922;-64
2023/07/20 02:50:09;;;;;;;;;;;;;;;18.08;nan;100626.81;4100038;28;19928;-64
2023/07/20 02:52:11;;;;;;;;;;;;;;;18.04;nan;100631.09;4098625;28;19922;-64
2023/07/20 02:54:14;;;;;;;;;;;;;;;17.99;nan;100640.00;4096927;28;20964;-65
2023/07/20 02:56:17;;;;;;;;;;;;;;;17.95;nan;100635.22;4098565;28;19933;-63
2023/07/20 02:58:20;;;;;;;;;;;;;;;17.92;nan;100628.28;4099259;28;19922;-64
2023/07/20 03:00:23;;;;;;;;;;;;;;;17.88;nan;100640.72;4099403;28;19927;-62
2023/07/20 03:02:25;;;;;;;;;;;;;;;17.85;nan;100646.63;4098634;28;19922;-63
2023/07/20 03:04:27;;;;;;;;;;;;;;;17.81;nan;100645.41;4099109;28;19922;-64
2023/07/20 03:06:29;;;;;;;;;;;;;;;17.76;nan;100648.81;4098121;28;19922;-64
2023/07/20 03:08:31;;;;;;;;;;;;;;;17.79;nan;100658.44;4098599;28;20296;-64
2023/07/20 03:10:36;;;;;;;;;;;;;;;17.82;nan;100647.06;4089964;28;19930;-63
2023/07/20 03:12:39;;;;;;;;;;;;;;;17.80;nan;100655.50;4098241;28;19922;-64
2023/07/20 03:14:42;;;;;;;;;;;;;;;17.80;nan;100657.41;4098245;28;19929;-64
2023/07/20 03:16:44;;;;;;;;;;;;;;;17.79;nan;100656.56;4098060;28;20158;-64
2023/07/20 03:18:48;;;;;;;;;;;;;;;17.81;nan;100661.81;4113568;28;19935;-64
2023/07/20 03:20:50;;;;;;;;;;;;;;;17.83;nan;100656.94;4098336;28;19929;-64
2023/07/20 03:22:52;;;;;;;;;;;;;;;17.83;nan;100646.84;4097695;28;20405;-64
2023/07/20 03:24:54;;;;;;;;;;;;;;;17.87;nan;100660.03;4098409;28;19929;-64
2023/07/20 03:26:57;;;;;;;;;;;;;;;17.88;nan;100651.66;4098497;28;19929;-64
2023/07/20 03:28:59;;;;;;;;;;;;;;;17.88;nan;100653.53;4097268;28;20478;-63
2023/07/20 03:31:02;;;;;;;;;;;;;;;17.88;nan;100654.38;4097564;28;19926;-64
2023/07/20 03:33:07;;;;;;;;;;;;;;;17.83;nan;100665.13;4088481;28;19973;-64
2023/07/20 03:35:09;;;;;;;;;;;;;;;17.84;nan;100667.66;4098690;29;19922;-65
2023/07/20 03:37:11;;;;;;;;;;;;;;;17.83;nan;100655.03;4098605;28;19933;-65
2023/07/20 03:39:13;;;;;;;;;;;;;;;17.79;nan;100656.56;4112779;28;20879;-64
2023/07/20 03:41:16;;;;;;;;;;;;;;;17.80;nan;100651.94;4096967;28;19922;-65
2023/07/20 03:43:18;;;;;;;;;;;;;;;17.82;nan;100658.84;4097835;28;20373;-63
2023/07/20 03:45:23;;;;;;;;;;;;;;;17.83;nan;100654.22;4096944;28;19923;-65
2023/07/20 03:47:26;;;;;;;;;;;;;;;17.82;nan;100658.00;4097242;28;19932;-64
2023/07/20 03:49:28;;;;;;;;;;;;;;;17.71;nan;100656.88;4104756;28;19926;-64
2023/07/20 03:51:30;;;;;;;;;;;;;;;17.68;nan;100660.06;4096664;28;19922;-64
2023/07/20 03:53:33;;;;;;;;;;;;;;;17.66;nan;100659.44;4104812;28;19933;-64
2023/07/20 03:55:36;;;;;;;;;;;;;;;17.63;nan;100659.88;4097794;28;19922;-64
2023/07/20 03:57:38;;;;;;;;;;;;;;;17.59;nan;100662.25;4097654;28;19930;-63
2023/07/20 03:59:45;;;;;;;;;;;;;;;17.56;nan;100659.94;4096491;28;19922;-64
2023/07/20 04:01:47;;;;;;;;;;;;;;;17.55;nan;100663.75;4097474;29;19932;-64
2023/07/20 04:03:49;;;;;;;;;;;;;;;17.56;nan;100665.41;4096713;28;19922;-65
2023/07/20 04:05:51;;;;;;;;;;;;;;;17.54;nan;100661.22;4097509;28;19928;-65
2023/07/20 04:07:54;;;;;;;;;;;;;;;17.53;nan;100665.88;4096972;28;19926;-65
2023/07/20 04:09:56;;;;;;;;;;;;;;;17.50;nan;100668.22;4096567;28;19932;-65
2023/07/20 04:11:58;;;;;;;;;;;;;;;17.50;nan;100669.03;4097442;28;19922;-65
2023/07/20 04:14:00;;;;;;;;;;;;;;;17.54;nan;100664.81;4095958;28;19927;-64
2023/07/20 04:16:04;;;;;;;;;;;;;;;17.57;nan;100675.28;4097977;28;19932;-63
2023/07/20 04:18:06;;;;;;;;;;;;;;;17.59;nan;100670.44;4096082;28;19923;-65
2023/07/20 04:20:09;;;;;;;;;;;;;;;17.61;nan;100668.31;4096192;28;19926;-64
2023/07/20 04:22:11;;;;;;;;;;;;;;;17.65;nan;100679.63;4097732;28;19933;-63
2023/07/20 04:24:14;;;;;;;;;;;;;;;17.64;nan;100667.84;4096215;28;21808;-64
2023/07/20 04:26:16;;;;;;;;;;;;;;;17.63;nan;100673.53;4087635;28;19922;-63
2023/07/20 04:28:18;;;;;;;;;;;;;;;17.62;nan;100669.16;4112156;28;19936;-64
2023/07/20 04:30:24;;;;;;;;;;;;;;;17.59;nan;100675.06;4096908;28;20574;-64
2023/07/20 04:32:27;;;;;;;;;;;;;;;17.56;nan;100668.16;4112258;28;20344;-64
2023/07/20 04:34:30;;;;;;;;;;;;;;;17.59;nan;100675.88;4112294;28;20297;-64
2023/07/20 04:36:33;;;;;;;;;;;;;;;17.58;nan;100673.38;4097011;29;20374;-62
2023/07/20 04:38:36;;;;;;;;;;;;;;;17.55;nan;100680.13;4096436;28;19930;-62
2023/07/20 04:41:04;;;;;;;;;;;;;;;17.56;nan;100680.97;4096958;28;19926;-64
2023/07/20 04:43:10;;;;;;;;;;;;;;;17.60;nan;100685.75;4096589;28;20296;-64
2023/07/20 04:45:13;;;;;;;;;;;;;;;17.59;nan;100683.25;4097180;29;19922;-64
2023/07/20 04:47:15;;;;;;;;;;;;;;;17.60;nan;100679.44;4095692;28;19922;-64
2023/07/20 04:49:18;;;;;;;;;;;;;;;17.57;nan;100685.34;4096519;28;20468;-65
2023/07/20 04:51:22;;;;;;;;;;;;;;;17.56;nan;100676.34;4096110;28;20377;-64
2023/07/20 04:53:28;;;;;;;;;;;;;;;17.54;nan;100678.47;4095919;28;19927;-64
2023/07/20 04:55:29;;;;;;;;;;;;;;;17.53;nan;100684.97;4096270;28;19926;-64
2023/07/20 04:57:32;;;;;;;;;;;;;;;17.52;nan;100685.19;4096393;28;19923;-63
2023/07/20 04:59:34;;;;;;;;;;;;;;;17.53;nan;100681.44;4096353;28;20393;-64
2023/07/20 05:01:36;;;;;;;;;;;;;;;17.55;nan;100682.03;4096515;28;19937;-63
2023/07/20 05:03:39;;;;;;;;;;;;;;;17.57;nan;100677.16;4095687;28;19933;-63
2023/07/20 05:05:44;;;;;;;;;;;;;;;17.62;nan;100682.81;4095955;28;19928;-64
2023/07/20 05:07:48;;;;;;;;;;;;;;;17.67;nan;100688.41;4095984;28;19927;-64
2023/07/20 05:09:50;;;;;;;;;;;;;;;17.74;nan;100677.41;4096015;28;20404;-63
2023/07/20 05:11:52;;;;;;;;;;;;;;;17.79;nan;100686.63;4095372;29;19929;-63
2023/07/20 05:13:55;;;;;;;;;;;;;;;17.82;nan;100682.56;4095532;28;20365;-63
2023/07/20 05:15:57;;;;;;;;;;;;;;;17.85;nan;100684.84;4096421;28;19932;-63
2023/07/20 05:17:59;;;;;;;;;;;;;;;17.88;nan;100687.16;4094342;28;19977;-64
2023/07/20 05:20:00;;;;;;;;;;;;;;;17.89;nan;100680.66;4112135;28;19928;-64
2023/07/20 05:22:05;;;;;;;;;;;;;;;17.90;nan;100687.81;4096726;28;19933;-64
2023/07/20 05:24:08;;;;;;;;;;;;;;;17.90;nan;100687.81;4096088;28;19929;-64
2023/07/20 05:26:10;;;;;;;;;;;;;;;17.87;nan;100687.38;4096422;28;19923;-64
2023/07/20 05:28:12;;;;;;;;;;;;;;;17.87;nan;100685.50;4095708;28;19926;-64
2023/07/20 05:30:15;;;;;;;;;;;;;;;17.83;nan;100689.72;4096523;28;19923;-63
2023/07/20 05:32:17;;;;;;;;;;;;;;;17.81;nan;100692.69;4096813;28;19926;-64
2023/07/20 05:34:20;;;;;;;;;;;;;;;17.79;nan;100693.97;4096995;28;19922;-63
2023/07/20 05:36:23;;;;;;;;;;;;;;;17.78;nan;100695.88;4096532;28;19928;-64
2023/07/20 05:38:27;;;;;;;;;;;;;;;17.80;nan;100692.91;4096680;28;19945;-60
2023/07/20 05:40:29;;;;;;;;;;;;;;;17.80;nan;100690.19;4096860;28;20313;-63
2023/07/20 05:42:30;;;;;;;;;;;;;;;17.81;nan;100692.69;4096608;28;19944;-64
2023/07/20 05:44:32;;;;;;;;;;;;;;;17.82;nan;100694.38;4096683;28;19937;-64
2023/07/20 05:46:34;;;;;;;;;;;;;;;17.83;nan;100693.28;4096783;28;20318;-64
2023/07/20 05:48:37;;;;;;;;;;;;;;;17.87;nan;100696.41;4095932;28;20435;-63
2023/07/20 05:50:39;;;;;;;;;;;;;;;17.90;nan;100696.00;4096737;28;19929;-63
2023/07/20 05:52:41;;;;;;;;;;;;;;;17.90;nan;100695.13;4096254;28;19930;-64
2023/07/20 05:54:45;;;;;;;;;;;;;;;17.89;nan;100698.97;4096862;28;19923;-63
2023/07/20 05:56:47;;;;;;;;;;;;;;;17.92;nan;100706.69;4096737;28;19932;-63
2023/07/20 05:58:49;;;;;;;;;;;;;;;17.96;nan;100700.56;4096067;28;20289;-64
2023/07/20 06:00:54;;;;;;;;;;;;;;;17.98;nan;100701.16;4094418;28;19927;-63
2023/07/20 06:02:56;;;;;;;;;;;;;;;17.97;nan;100710.41;4096193;28;19922;-64
2023/07/20 06:04:58;;;;;;;;;;;;;;;17.96;nan;100708.75;4097278;28;20300;-64
2023/07/20 06:07:00;;;;;;;;;;;;;;;17.96;nan;100706.03;4095993;28;19922;-63
2023/07/20 06:09:03;;;;;;;;;;;;;;;17.90;nan;100708.81;4096178;28;19922;-63
2023/07/20 06:11:07;;;;;;;;;;;;;;;17.88;nan;100708.16;4095821;28;19923;-63
2023/07/20 06:13:09;;;;;;;;;;;;;;;17.89;nan;100710.72;4096089;28;20278;-63
2023/07/20 06:15:25;;;;;;;;;;;;;;;17.89;nan;100713.44;4095612;28;20407;-63
2023/07/20 06:17:27;;;;;;;;;;;;;;;17.87;nan;100720.16;4095415;28;19926;-64
2023/07/20 06:19:29;;;;;;;;;;;;;;;17.87;nan;100721.00;4096291;28;19929;-63
2023/07/20 06:21:31;;;;;;;;;;;;;;;17.88;nan;100719.09;4098134;28;19956;-63
2023/07/20 06:23:33;;;;;;;;;;;;;;;17.88;nan;100721.84;4095889;28;19932;-64
2023/07/20 06:25:35;;;;;;;;;;;;;;;17.91;nan;100724.16;4096669;28;19922;-64
2023/07/20 06:27:39;;;;;;;;;;;;;;;17.94;nan;100721.78;4096666;28;19926;-64
2023/07/20 06:29:41;;;;;;;;;;;;;;;17.97;nan;100725.97;4096278;28;19922;-62
2023/07/20 06:31:43;;;;;;;;;;;;;;;18.00;nan;100728.25;4098145;28;20365;-62
2023/07/20 06:33:45;;;;;;;;;;;;;;;18.05;nan;100722.09;4099353;28;19957;-63
2023/07/20 06:35:48;;;;;;;;;;;;;;;18.08;nan;100714.28;4099285;28;20341;-64
2023/07/20 06:37:50;;;;;;;;;;;;;;;18.12;nan;100720.97;4099639;28;19928;-64
2023/07/20 06:39:52;;;;;;;;;;;;;;;18.13;nan;100728.09;4099835;28;19926;-62
2023/07/20 06:41:54;;;;;;;;;;;;;;;18.15;nan;100719.66;4099708;28;19922;-63
2023/07/20 06:43:58;;;;;;;;;;;;;;;18.17;nan;100729.31;4098735;28;19933;-61
2023/07/20 06:46:01;;;;;;;;;;;;;;;18.21;nan;100734.34;4098439;28;19929;-61
2023/07/20 06:48:03;;;;;;;;;;;;;;;18.22;nan;100733.28;4098242;28;19923;-63
2023/07/20 06:50:06;;;;;;;;;;;;;;;18.24;nan;100742.91;4099043;28;19926;-63
2023/07/20 06:52:08;;;;;;;;;;;;;;;18.22;nan;100733.28;4098980;28;19929;-65
2023/07/20 06:54:10;;;;;;;;;;;;;;;18.23;nan;100734.94;4097929;28;19930;-65
2023/07/20 06:56:13;;;;;;;;;;;;;;;18.22;nan;100744.22;4098859;28;19922;-65
2023/07/20 06:58:15;;;;;;;;;;;;;;;18.16;nan;100743.22;4098478;28;19948;-65
2023/07/20 07:00:19;;;;;;;;;;;;;;;18.12;nan;100742.84;4098506;28;20462;-64
2023/07/20 07:02:21;;;;;;;;;;;;;;;18.15;nan;100744.25;4098759;28;19922;-64
2023/07/20 07:04:23;;;;;;;;;;;;;;;18.15;nan;100745.13;4098451;28;19922;-63
2023/07/20 07:06:27;;;;;;;;;;;;;;;18.19;nan;100742.75;4097104;28;19936;-64
2023/07/20 07:08:30;;;;;;;;;;;;;;;18.22;nan;100739.56;4097653;28;19922;-64
2023/07/20 07:10:32;;;;;;;;;;;;;;;18.20;nan;100738.97;4096651;28;20403;-64
2023/07/20 07:12:35;;;;;;;;;;;;;;;18.16;nan;100741.31;4098605;28;19927;-64
2023/07/20 07:14:37;;;;;;;;;;;;;;;18.15;nan;100747.00;4099013;28;19922;-64
2023/07/20 07:16:40;;;;;;;;;;;;;;;18.14;nan;100740.72;4097122;28;19922;-64
2023/07/20 07:18:43;;;;;;;;;;;;;;;18.16;nan;100743.22;4095249;28;20341;-65
2023/07/20 07:20:50;;;;;;;;;;;;;;;18.18;nan;100741.94;4096779;28;19922;-64
2023/07/20 07:22:53;;;;;;;;;;;;;;;18.21;nan;100743.34;4097711;28;19926;-63
2023/07/20 07:24:55;;;;;;;;;;;;;;;18.23;nan;100746.72;4098084;28;19953;-63
2023/07/20 07:26:57;;;;;;;;;;;;;;;18.25;nan;100751.97;4098893;28;19945;-64
2023/07/20 07:28:59;;;;;;;;;;;;;;;18.26;nan;100745.41;4098537;28;19926;-64
2023/07/20 07:31:01;;;;;;;;;;;;;;;18.28;nan;100746.03;4098544;28;19927;-64
2023/07/20 07:33:05;;;;;;;;;;;;;;;18.34;nan;100745.13;4098072;28;19929;-63
2023/07/20 07:35:07;;;;;;;;;;;;;;;18.39;nan;100752.66;4098705;28;19923;-61
2023/07/20 07:37:09;;;;;;;;;;;;;;;18.41;nan;100748.59;4098844;28;19929;-64
2023/07/20 07:39:11;;;;;;;;;;;;;;;18.46;nan;100751.47;4098491;28;19922;-64
2023/07/20 07:41:14;;;;;;;;;;;;;;;18.49;nan;100751.00;4097814;28;19933;-64
2023/07/20 07:43:16;;;;;;;;;;;;;;;18.55;nan;100750.09;4097659;28;19933;-64
2023/07/20 07:45:19;;;;;;;;;;;;;;;18.62;nan;100746.44;4098606;28;19922;-64
2023/07/20 07:47:21;;;;;;;;;;;;;;;18.67;nan;100749.34;4097687;28;19928;-64
2023/07/20 07:49:25;;;;;;;;;;;;;;;18.75;nan;100743.53;4097817;28;19941;-64
2023/07/20 07:51:30;;;;;;;;;;;;;;;18.84;nan;100744.03;4099169;28;19923;-65
2023/07/20 07:53:33;;;;;;;;;;;;;;;18.92;nan;100751.97;4097691;28;19932;-65
2023/07/20 07:55:35;;;;;;;;;;;;;;;18.99;nan;100747.22;4098154;29;19933;-63
2023/07/20 07:57:40;;;;;;;;;;;;;;;19.04;nan;100741.91;4097443;28;19930;-64
2023/07/20 07:59:42;;;;;;;;;;;;;;;19.09;nan;100749.41;4097739;28;19929;-64
2023/07/20 08:01:45;;;;;;;;;;;;;;;19.14;nan;100751.44;4098759;28;19929;-64
2023/07/20 08:03:47;;;;;;;;;;;;;;;19.14;nan;100746.81;4097307;28;19926;-64
2023/07/20 08:05:51;;;;;;;;;;;;;;;19.19;nan;100746.94;4096839;28;20376;-64
2023/07/20 08:07:53;;;;;;;;;;;;;;;19.23;nan;100752.78;4097264;28;20297;-65
2023/07/20 08:09:55;;;;;;;;;;;;;;;19.27;nan;100757.53;4098122;28;19929;-64
2023/07/20 08:11:57;;;;;;;;;;;;;;;19.27;nan;100751.25;4096012;28;19922;-65
2023/07/20 08:13:59;;;;;;;;;;;;;;;19.30;nan;100747.22;4097569;28;19948;-64
2023/07/20 08:16:02;;;;;;;;;;;;;;;19.30;nan;100745.28;4097822;28;19930;-61
2023/07/20 08:18:04;;;;;;;;;;;;;;;19.31;nan;100741.50;4096694;28;19933;-65
2023/07/20 08:20:08;;;;;;;;;;;;;;;19.37;nan;100751.50;4097323;28;20297;-64
2023/07/20 08:22:13;;;;;;;;;;;;;;;19.43;nan;100753.28;4097686;28;19932;-64
2023/07/20 08:24:15;;;;;;;;;;;;;;;19.49;nan;100750.69;4097703;28;20440;-64
2023/07/20 08:26:17;;;;;;;;;;;;;;;19.51;nan;100751.28;4098150;28;19927;-64
2023/07/20 08:28:19;;;;;;;;;;;;;;;19.55;nan;100758.78;4096620;28;19940;-64
2023/07/20 08:30:23;;;;;;;;;;;;;;;19.55;nan;100760.72;4097174;28;19928;-63
2023/07/20 08:32:26;;;;;;;;;;;;;;;19.58;nan;100768.44;4097635;28;20384;-64
2023/07/20 08:34:28;;;;;;;;;;;;;;;19.60;nan;100769.03;4097899;28;19926;-64
2023/07/20 08:36:31;;;;;;;;;;;;;;;19.55;nan;100764.28;4097737;28;19929;-64
2023/07/20 08:38:34;;;;;;;;;;;;;;;19.53;nan;100771.91;4097394;28;19933;-65
2023/07/20 08:40:40;;;;;;;;;;;;;;;19.54;nan;100772.72;4097294;28;19929;-64
2023/07/20 08:42:42;;;;;;;;;;;;;;;19.57;nan;100775.00;4097790;28;20014;-66
2023/07/20 08:44:44;;;;;;;;;;;;;;;19.57;nan;100775.81;4097622;28;19926;-63
2023/07/20 08:46:46;;;;;;;;;;;;;;;19.59;nan;100770.09;4097447;28;19922;-63
2023/07/20 08:48:49;;;;;;;;;;;;;;;19.59;nan;100773.69;4096442;28;19929;-65
2023/07/20 08:50:51;;;;;;;;;;;;;;;19.62;nan;100775.09;4097230;28;19926;-63
2023/07/20 08:52:54;;;;;;;;;;;;;;;19.59;nan;100775.56;4097667;28;19946;-64
2023/07/20 08:54:58;;;;;;;;;;;;;;;19.60;nan;100778.09;4096854;28;19927;-63
2023/07/20 08:57:03;;;;;;;;;;;;;;;19.61;nan;100768.81;4097305;28;19926;-64
2023/07/20 08:59:05;;;;;;;;;;;;;;;19.63;nan;100771.31;4095875;28;19933;-63
2023/07/20 09:01:07;;;;;;;;;;;;;;;19.61;nan;100770.72;4097465;28;20002;-64
2023/07/20 09:03:12;;;;;;;;;;;;;;;19.61;nan;100777.03;4096685;28;19948;-65
2023/07/20 09:05:14;;;;;;;;;;;;;;;19.62;nan;100767.75;4097666;28;19926;-65
2023/07/20 09:07:18;;;;;;;;;;;;;;;19.62;nan;100780.59;4096314;28;19949;-64
2023/07/20 09:09:21;;;;;;;;;;;;;;;19.57;nan;100777.72;4097720;28;19929;-65
2023/07/20 09:11:24;;;;;;;;;;;;;;;19.54;nan;100787.25;4096761;28;20411;-64
2023/07/20 09:13:27;;;;;;;;;;;;;;;19.53;nan;100782.00;4096394;28;19922;-65
2023/07/20 09:15:29;;;;;;;;;;;;;;;19.51;nan;100776.75;4096193;28;19931;-63
2023/07/20 09:17:32;;;;;;;;;;;;;;;19.54;nan;100776.28;4095994;28;19922;-64
2023/07/20 09:19:34;;;;;;;;;;;;;;;19.55;nan;100777.16;4097268;28;19922;-63
2023/07/20 09:21:36;;;;;;;;;;;;;;;19.59;nan;100775.56;4097483;28;19942;-64
2023/07/20 09:23:39;;;;;;;;;;;;;;;19.60;nan;100775.34;4096793;28;19926;-64
2023/07/20 09:25:45;;;;;;;;;;;;;;;19.59;nan;100775.56;4097528;28;19929;-64
2023/07/20 09:27:51;;;;;;;;;;;;;;;19.63;nan;100782.25;4096956;28;19926;-63
2023/07/20 09:29:53;;;;;;;;;;;;;;;19.66;nan;100772.75;4096041;28;19922;-64
2023/07/20 09:32:00;;;;;;;;;;;;;;;19.62;nan;100775.09;4097253;28;19922;-64
2023/07/20 09:34:03;;;;;;;;;;;;;;;19.63;nan;100780.34;4095641;28;19930;-64
2023/07/20 09:36:05;;;;;;;;;;;;;;;19.66;nan;100783.72;4097129;28;19922;-64
2023/07/20 09:38:08;;;;;;;;;;;;;;;19.65;nan;100768.34;4095677;28;19968;-64
2023/07/20 09:40:11;;;;;;;;;;;;;;;19.67;nan;100772.50;4096633;29;20274;-64
2023/07/20 09:42:12;;;;;;;;;;;;;;;19.75;nan;100774.06;4096357;28;19929;-63
2023/07/20 09:44:16;;;;;;;;;;;;;;;19.83;nan;100771.00;4097235;28;19956;-64
2023/07/20 09:46:20;;;;;;;;;;;;;;;19.93;nan;100773.97;4096838;28;19927;-63
2023/07/20 09:48:24;;;;;;;;;;;;;;;19.96;nan;100767.19;4096244;28;19922;-63
2023/07/20 09:50:27;;;;;;;;;;;;;;;19.94;nan;100767.41;4096567;28;20389;-63
2023/07/20 09:52:29;;;;;;;;;;;;;;;19.96;nan;100772.66;4096199;28;20385;-64
2023/07/20 09:54:32;;;;;;;;;;;;;;;19.97;nan;100775.16;4097321;28;19923;-64
2023/07/20 09:56:34;;;;;;;;;;;;;;;19.98;nan;100770.50;4092766;28;19922;-63
2023/07/20 09:58:36;;;;;;;;;;;;;;;20.02;nan;100765.41;4096382;28;19927;-64
2023/07/20 10:00:41;;;;;;;;;;;;;;;20.07;nan;100773.75;4096435;28;20308;-64
2023/07/20 10:02:43;;;;;;;;;;;;;;;20.10;nan;100770.50;4096235;28;19922;-63
2023/07/20 10:04:47;;;;;;;;;;;;;;;20.14;nan;100766.19;4096290;28;20562;-63
2023/07/20 10:06:50;;;;;;;;;;;;;;;20.20;nan;100769.91;4098916;28;20269;-64
2023/07/20 10:08:52;;;;;;;;;;;;;;;20.24;nan;100766.44;4098062;28;19932;-64
2023/07/20 10:10:54;;;;;;;;;;;;;;;20.22;nan;100771.34;4099121;28;19926;-63
2023/07/20 10:12:56;;;;;;;;;;;;;;;20.21;nan;100764.19;4098909;28;19994;-64
2023/07/20 10:14:59;;;;;;;;;;;;;;;20.20;nan;100776.22;4099449;28;19945;-64
2023/07/20 10:17:02;;;;;;;;;;;;;;;20.13;nan;100764.56;4099091;28;19922;-62
2023/07/20 10:19:07;;;;;;;;;;;;;;;20.08;nan;100767.19;4098106;28;19926;-64
2023/07/20 10:21:09;;;;;;;;;;;;;;;20.07;nan;100762.78;4100103;28;19930;-63
2023/07/20 10:23:11;;;;;;;;;;;;;;;20.06;nan;100770.16;4098231;28;19929;-63
2023/07/20 10:25:13;;;;;;;;;;;;;;;20.10;nan;100776.00;4099074;28;20387;-64
2023/07/20 10:27:16;;;;;;;;;;;;;;;20.10;nan;100770.50;4099987;28;19927;-63
2023/07/20 10:29:18;;;;;;;;;;;;;;;20.09;nan;100777.06;4099115;28;19929;-64
2023/07/20 10:31:20;;;;;;;;;;;;;;;20.12;nan;100769.19;4098011;28;19926;-64
2023/07/20 10:33:26;;;;;;;;;;;;;;;20.15;nan;100768.72;4099765;28;19932;-64
2023/07/20 10:35:29;;;;;;;;;;;;;;;20.16;nan;100770.38;4099376;29;19922;-63
2023/07/20 10:37:46;;;;;;;;;;;;;;;20.13;nan;100770.88;4099297;28;19926;-64
2023/07/20 10:39:48;;;;;;;;;;;;;;;20.16;nan;100777.78;4098394;28;19922;-63
2023/07/20 10:41:50;;;;;;;;;;;;;;;20.22;nan;100765.00;4099435;28;19926;-62
2023/07/20 10:43:55;;;;;;;;;;;;;;;20.28;nan;100769.53;4098904;28;19929;-64
2023/07/20 10:45:58;;;;;;;;;;;;;;;20.35;nan;100762.00;4098426;28;20677;-64
2023/07/20 10:48:02;;;;;;;;;;;;;;;20.40;nan;100767.59;4098259;28;19926;-61
2023/07/20 10:50:07;;;;;;;;;;;;;;;20.46;nan;100772.13;4099725;28;19926;-62